sensor_id;sensor_type;location;lat;lon;timestamp;P1;durP1;ratioP1;P2;durP2;ratioP2
17796;SDS011;55596;53.554;9.916;2024-01-11T00:00:09;31.07;;;21.37;;
17796;SDS011;55596;53.554;9.916;2024-01-11T00:02:36;35.30;;;23.13;;
17796;SDS011;55596;53.554;9.916;2024-01-11T00:05:04;49.37;;;22.07;;
17796;SDS011;55596;53.554;9.916;2024-01-11T00:07:32;33.43;;;21.90;;
17796;SDS011;55596;53.554;9.916;2024-01-11T00:10:00;35.33;;;21.80;;
17796;SDS011;55596;53.554;9.916;2024-01-11T00:12:28;36.23;;;22.97;;
17796;SDS011;55596;53.554;9.916;2024-01-11T00:14:56;34.67;;;22.77;;
17796;SDS011;55596;53.554;9.916;2024-01-11T00:17:24;42.47;;;23.00;;
17796;SDS011;55596;53.554;9.916;2024-01-11T00:19:51;36.23;;;22.93;;
17796;SDS011;55596;53.554;9.916;2024-01-11T00:22:19;41.00;;;23.47;;
17796;SDS011;55596;53.554;9.916;2024-01-11T00:24:46;38.90;;;22.33;;
17796;SDS011;55596;53.554;9.916;2024-01-11T00:27:13;52.50;;;22.37;;
17796;SDS011;55596;53.554;9.916;2024-01-11T00:29:40;30.30;;;19.90;;
17796;SDS011;55596;53.554;9.916;2024-01-11T00:32:07;71.53;;;22.13;;
17796;SDS011;55596;53.554;9.916;2024-01-11T00:34:34;33.27;;;20.50;;
17796;SDS011;55596;53.554;9.916;2024-01-11T00:37:02;57.73;;;19.87;;
17796;SDS011;55596;53.554;9.916;2024-01-11T00:39:30;34.23;;;20.43;;
17796;SDS011;55596;53.554;9.916;2024-01-11T00:41:57;59.73;;;20.50;;
17796;SDS011;55596;53.554;9.916;2024-01-11T00:44:24;52.67;;;22.50;;
17796;SDS011;55596;53.554;9.916;2024-01-11T00:46:51;35.67;;;22.80;;
17796;SDS011;55596;53.554;9.916;2024-01-11T00:49:18;124.53;;;21.10;;
17796;SDS011;55596;53.554;9.916;2024-01-11T00:51:45;65.13;;;20.77;;
17796;SDS011;55596;53.554;9.916;2024-01-11T00:54:12;35.73;;;20.70;;
17796;SDS011;55596;53.554;9.916;2024-01-11T00:56:41;51.27;;;20.93;;
17796;SDS011;55596;53.554;9.916;2024-01-11T00:59:08;119.70;;;22.40;;
17796;SDS011;55596;53.554;9.916;2024-01-11T01:01:35;89.90;;;20.80;;
17796;SDS011;55596;53.554;9.916;2024-01-11T01:04:02;34.50;;;21.03;;
17796;SDS011;55596;53.554;9.916;2024-01-11T01:06:29;32.97;;;20.37;;
17796;SDS011;55596;53.554;9.916;2024-01-11T01:08:56;83.00;;;22.47;;
17796;SDS011;55596;53.554;9.916;2024-01-11T01:11:23;47.90;;;19.77;;
17796;SDS011;55596;53.554;9.916;2024-01-11T01:13:51;55.47;;;20.80;;
17796;SDS011;55596;53.554;9.916;2024-01-11T01:16:18;59.80;;;19.53;;
17796;SDS011;55596;53.554;9.916;2024-01-11T01:18:45;47.10;;;20.23;;
17796;SDS011;55596;53.554;9.916;2024-01-11T01:21:12;31.67;;;19.67;;
17796;SDS011;55596;53.554;9.916;2024-01-11T01:23:39;39.67;;;21.07;;
17796;SDS011;55596;53.554;9.916;2024-01-11T01:26:06;88.00;;;22.23;;
17796;SDS011;55596;53.554;9.916;2024-01-11T01:28:33;50.47;;;19.73;;
17796;SDS011;55596;53.554;9.916;2024-01-11T01:31:02;44.40;;;20.57;;
17796;SDS011;55596;53.554;9.916;2024-01-11T01:33:29;33.43;;;20.43;;
17796;SDS011;55596;53.554;9.916;2024-01-11T01:35:56;37.67;;;18.53;;
17796;SDS011;55596;53.554;9.916;2024-01-11T01:38:23;32.70;;;18.43;;
17796;SDS011;55596;53.554;9.916;2024-01-11T01:40:50;40.93;;;20.20;;
17796;SDS011;55596;53.554;9.916;2024-01-11T01:43:17;31.73;;;18.53;;
17796;SDS011;55596;53.554;9.916;2024-01-11T01:45:44;62.37;;;19.40;;
17796;SDS011;55596;53.554;9.916;2024-01-11T01:48:13;43.60;;;18.37;;
17796;SDS011;55596;53.554;9.916;2024-01-11T01:50:40;30.73;;;19.07;;
17796;SDS011;55596;53.554;9.916;2024-01-11T01:53:10;49.00;;;19.83;;
17796;SDS011;55596;53.554;9.916;2024-01-11T01:55:37;37.13;;;18.40;;
17796;SDS011;55596;53.554;9.916;2024-01-11T01:58:05;41.67;;;19.43;;
17796;SDS011;55596;53.554;9.916;2024-01-11T02:00:32;34.20;;;18.93;;
17796;SDS011;55596;53.554;9.916;2024-01-11T02:02:59;61.50;;;19.67;;
17796;SDS011;55596;53.554;9.916;2024-01-11T02:05:27;46.47;;;19.77;;
17796;SDS011;55596;53.554;9.916;2024-01-11T02:07:54;76.37;;;22.00;;
17796;SDS011;55596;53.554;9.916;2024-01-11T02:10:22;49.20;;;21.27;;
17796;SDS011;55596;53.554;9.916;2024-01-11T02:12:50;54.97;;;20.90;;
17796;SDS011;55596;53.554;9.916;2024-01-11T02:15:17;40.13;;;20.73;;
17796;SDS011;55596;53.554;9.916;2024-01-11T02:17:44;92.83;;;22.47;;
17796;SDS011;55596;53.554;9.916;2024-01-11T02:20:11;46.30;;;21.00;;
17796;SDS011;55596;53.554;9.916;2024-01-11T02:22:40;53.00;;;22.10;;
17796;SDS011;55596;53.554;9.916;2024-01-11T02:25:09;33.77;;;20.27;;
17796;SDS011;55596;53.554;9.916;2024-01-11T02:27:45;41.40;;;20.23;;
17796;SDS011;55596;53.554;9.916;2024-01-11T02:30:13;37.37;;;21.57;;
17796;SDS011;55596;53.554;9.916;2024-01-11T02:32:40;46.87;;;22.80;;
17796;SDS011;55596;53.554;9.916;2024-01-11T02:35:07;36.50;;;22.27;;
17796;SDS011;55596;53.554;9.916;2024-01-11T02:37:35;41.33;;;23.23;;
17796;SDS011;55596;53.554;9.916;2024-01-11T02:40:03;44.73;;;23.13;;
17796;SDS011;55596;53.554;9.916;2024-01-11T02:42:32;39.67;;;23.80;;
17796;SDS011;55596;53.554;9.916;2024-01-11T02:44:59;39.63;;;21.47;;
17796;SDS011;55596;53.554;9.916;2024-01-11T02:47:26;43.53;;;21.83;;
17796;SDS011;55596;53.554;9.916;2024-01-11T02:49:53;50.40;;;24.20;;
17796;SDS011;55596;53.554;9.916;2024-01-11T02:52:20;53.67;;;24.97;;
17796;SDS011;55596;53.554;9.916;2024-01-11T02:54:47;47.97;;;26.40;;
17796;SDS011;55596;53.554;9.916;2024-01-11T02:57:14;43.30;;;24.57;;
17796;SDS011;55596;53.554;9.916;2024-01-11T02:59:43;51.13;;;26.87;;
17796;SDS011;55596;53.554;9.916;2024-01-11T03:02:10;54.47;;;27.07;;
17796;SDS011;55596;53.554;9.916;2024-01-11T03:04:37;50.23;;;26.57;;
17796;SDS011;55596;53.554;9.916;2024-01-11T03:07:04;50.67;;;26.67;;
17796;SDS011;55596;53.554;9.916;2024-01-11T03:09:31;54.20;;;28.43;;
17796;SDS011;55596;53.554;9.916;2024-01-11T03:11:59;63.60;;;27.63;;
17796;SDS011;55596;53.554;9.916;2024-01-11T03:14:26;54.07;;;28.03;;
17796;SDS011;55596;53.554;9.916;2024-01-11T03:16:54;60.57;;;30.13;;
17796;SDS011;55596;53.554;9.916;2024-01-11T03:19:21;65.13;;;28.67;;
17796;SDS011;55596;53.554;9.916;2024-01-11T03:21:48;60.87;;;29.23;;
17796;SDS011;55596;53.554;9.916;2024-01-11T03:24:15;59.33;;;28.93;;
17796;SDS011;55596;53.554;9.916;2024-01-11T03:26:42;57.93;;;29.70;;
17796;SDS011;55596;53.554;9.916;2024-01-11T03:29:09;60.80;;;29.97;;
17796;SDS011;55596;53.554;9.916;2024-01-11T03:31:36;61.33;;;30.60;;
17796;SDS011;55596;53.554;9.916;2024-01-11T03:34:07;63.50;;;29.27;;
17796;SDS011;55596;53.554;9.916;2024-01-11T03:36:35;71.80;;;29.00;;
17796;SDS011;55596;53.554;9.916;2024-01-11T03:39:02;65.47;;;29.27;;
17796;SDS011;55596;53.554;9.916;2024-01-11T03:41:29;59.67;;;28.90;;
17796;SDS011;55596;53.554;9.916;2024-01-11T03:43:56;58.70;;;28.67;;
17796;SDS011;55596;53.554;9.916;2024-01-11T03:46:23;55.67;;;28.80;;
17796;SDS011;55596;53.554;9.916;2024-01-11T03:48:50;57.83;;;29.53;;
17796;SDS011;55596;53.554;9.916;2024-01-11T03:51:18;53.57;;;26.60;;
17796;SDS011;55596;53.554;9.916;2024-01-11T03:53:45;53.20;;;27.07;;
17796;SDS011;55596;53.554;9.916;2024-01-11T03:56:12;60.83;;;29.80;;
17796;SDS011;55596;53.554;9.916;2024-01-11T03:58:39;53.17;;;28.57;;
17796;SDS011;55596;53.554;9.916;2024-01-11T04:01:09;50.27;;;26.70;;
17796;SDS011;55596;53.554;9.916;2024-01-11T04:03:36;52.47;;;27.17;;
17796;SDS011;55596;53.554;9.916;2024-01-11T04:06:03;57.07;;;28.17;;
17796;SDS011;55596;53.554;9.916;2024-01-11T04:08:32;58.73;;;28.77;;
17796;SDS011;55596;53.554;9.916;2024-01-11T04:11:01;62.50;;;30.70;;
17796;SDS011;55596;53.554;9.916;2024-01-11T04:13:29;61.80;;;30.23;;
17796;SDS011;55596;53.554;9.916;2024-01-11T04:15:56;66.30;;;31.87;;
17796;SDS011;55596;53.554;9.916;2024-01-11T04:18:23;72.47;;;34.27;;
17796;SDS011;55596;53.554;9.916;2024-01-11T04:20:50;71.40;;;34.60;;
17796;SDS011;55596;53.554;9.916;2024-01-11T04:23:17;79.57;;;35.27;;
17796;SDS011;55596;53.554;9.916;2024-01-11T04:25:45;86.50;;;36.90;;
17796;SDS011;55596;53.554;9.916;2024-01-11T04:28:12;82.03;;;38.20;;
17796;SDS011;55596;53.554;9.916;2024-01-11T04:30:39;87.73;;;38.70;;
17796;SDS011;55596;53.554;9.916;2024-01-11T04:33:06;88.13;;;39.40;;
17796;SDS011;55596;53.554;9.916;2024-01-11T04:35:33;84.30;;;39.00;;
17796;SDS011;55596;53.554;9.916;2024-01-11T04:38:00;89.63;;;38.63;;
17796;SDS011;55596;53.554;9.916;2024-01-11T04:40:28;94.30;;;41.90;;
17796;SDS011;55596;53.554;9.916;2024-01-11T04:42:56;90.80;;;41.77;;
17796;SDS011;55596;53.554;9.916;2024-01-11T04:45:23;80.30;;;39.17;;
17796;SDS011;55596;53.554;9.916;2024-01-11T04:47:50;85.37;;;38.13;;
17796;SDS011;55596;53.554;9.916;2024-01-11T04:50:17;82.87;;;38.03;;
17796;SDS011;55596;53.554;9.916;2024-01-11T04:52:44;73.67;;;35.90;;
17796;SDS011;55596;53.554;9.916;2024-01-11T04:55:11;72.93;;;35.90;;
17796;SDS011;55596;53.554;9.916;2024-01-11T04:57:39;69.90;;;34.30;;
17796;SDS011;55596;53.554;9.916;2024-01-11T05:00:07;61.73;;;30.97;;
17796;SDS011;55596;53.554;9.916;2024-01-11T05:02:35;60.03;;;29.07;;
17796;SDS011;55596;53.554;9.916;2024-01-11T05:05:02;52.07;;;26.17;;
17796;SDS011;55596;53.554;9.916;2024-01-11T05:07:29;54.80;;;27.90;;
17796;SDS011;55596;53.554;9.916;2024-01-11T05:09:56;47.43;;;24.17;;
17796;SDS011;55596;53.554;9.916;2024-01-11T05:12:23;53.27;;;26.70;;
17796;SDS011;55596;53.554;9.916;2024-01-11T05:14:50;52.53;;;25.70;;
17796;SDS011;55596;53.554;9.916;2024-01-11T05:17:19;47.83;;;24.90;;
17796;SDS011;55596;53.554;9.916;2024-01-11T05:19:46;57.43;;;28.07;;
17796;SDS011;55596;53.554;9.916;2024-01-11T05:22:13;60.23;;;29.80;;
17796;SDS011;55596;53.554;9.916;2024-01-11T05:24:40;55.20;;;28.13;;
17796;SDS011;55596;53.554;9.916;2024-01-11T05:27:07;49.93;;;24.20;;
17796;SDS011;55596;53.554;9.916;2024-01-11T05:29:34;44.77;;;23.80;;
17796;SDS011;55596;53.554;9.916;2024-01-11T05:32:01;42.03;;;22.30;;
17796;SDS011;55596;53.554;9.916;2024-01-11T05:34:29;38.33;;;20.93;;
17796;SDS011;55596;53.554;9.916;2024-01-11T05:36:56;42.67;;;20.77;;
17796;SDS011;55596;53.554;9.916;2024-01-11T05:39:23;38.07;;;21.50;;
17796;SDS011;55596;53.554;9.916;2024-01-11T05:41:50;35.13;;;18.53;;
17796;SDS011;55596;53.554;9.916;2024-01-11T05:44:18;38.03;;;19.47;;
17796;SDS011;55596;53.554;9.916;2024-01-11T05:46:45;34.43;;;16.97;;
17796;SDS011;55596;53.554;9.916;2024-01-11T05:49:12;34.90;;;17.77;;
17796;SDS011;55596;53.554;9.916;2024-01-11T05:51:40;50.07;;;17.60;;
17796;SDS011;55596;53.554;9.916;2024-01-11T05:54:07;42.50;;;15.73;;
17796;SDS011;55596;53.554;9.916;2024-01-11T05:56:34;59.10;;;14.20;;
17796;SDS011;55596;53.554;9.916;2024-01-11T05:59:01;49.73;;;14.90;;
17796;SDS011;55596;53.554;9.916;2024-01-11T06:01:29;42.53;;;14.20;;
17796;SDS011;55596;53.554;9.916;2024-01-11T06:03:56;27.27;;;13.27;;
17796;SDS011;55596;53.554;9.916;2024-01-11T06:06:23;43.00;;;12.60;;
17796;SDS011;55596;53.554;9.916;2024-01-11T06:08:52;55.50;;;13.70;;
17796;SDS011;55596;53.554;9.916;2024-01-11T06:11:19;98.13;;;13.70;;
17796;SDS011;55596;53.554;9.916;2024-01-11T06:13:46;74.13;;;12.40;;
17796;SDS011;55596;53.554;9.916;2024-01-11T06:16:13;38.73;;;12.63;;
17796;SDS011;55596;53.554;9.916;2024-01-11T06:18:40;68.90;;;11.63;;
17796;SDS011;55596;53.554;9.916;2024-01-11T06:21:07;55.93;;;12.10;;
17796;SDS011;55596;53.554;9.916;2024-01-11T06:23:34;83.13;;;10.90;;
17796;SDS011;55596;53.554;9.916;2024-01-11T06:26:03;24.83;;;10.77;;
17796;SDS011;55596;53.554;9.916;2024-01-11T06:28:30;49.10;;;9.20;;
17796;SDS011;55596;53.554;9.916;2024-01-11T06:30:57;52.37;;;9.73;;
17796;SDS011;55596;53.554;9.916;2024-01-11T06:33:24;41.00;;;9.87;;
17796;SDS011;55596;53.554;9.916;2024-01-11T06:35:52;107.93;;;10.67;;
17796;SDS011;55596;53.554;9.916;2024-01-11T06:38:19;41.67;;;9.17;;
17796;SDS011;55596;53.554;9.916;2024-01-11T06:40:46;29.97;;;9.87;;
17796;SDS011;55596;53.554;9.916;2024-01-11T06:43:15;68.23;;;10.77;;
17796;SDS011;55596;53.554;9.916;2024-01-11T06:45:42;57.70;;;10.57;;
17796;SDS011;55596;53.554;9.916;2024-01-11T06:48:09;33.80;;;11.23;;
17796;SDS011;55596;53.554;9.916;2024-01-11T06:50:36;38.00;;;10.47;;
17796;SDS011;55596;53.554;9.916;2024-01-11T06:53:03;25.97;;;10.80;;
17796;SDS011;55596;53.554;9.916;2024-01-11T06:55:30;69.83;;;11.43;;
17796;SDS011;55596;53.554;9.916;2024-01-11T06:57:57;75.37;;;11.93;;
17796;SDS011;55596;53.554;9.916;2024-01-11T07:00:28;57.67;;;10.93;;
17796;SDS011;55596;53.554;9.916;2024-01-11T07:02:55;52.20;;;11.40;;
17796;SDS011;55596;53.554;9.916;2024-01-11T07:05:22;39.80;;;11.43;;
17796;SDS011;55596;53.554;9.916;2024-01-11T07:07:49;37.63;;;12.10;;
17796;SDS011;55596;53.554;9.916;2024-01-11T07:10:16;37.90;;;12.50;;
17796;SDS011;55596;53.554;9.916;2024-01-11T07:12:43;33.13;;;12.40;;
17796;SDS011;55596;53.554;9.916;2024-01-11T07:15:12;38.90;;;13.43;;
17796;SDS011;55596;53.554;9.916;2024-01-11T07:17:41;66.90;;;13.30;;
17796;SDS011;55596;53.554;9.916;2024-01-11T07:20:08;34.70;;;13.70;;
17796;SDS011;55596;53.554;9.916;2024-01-11T07:22:36;55.20;;;12.57;;
17796;SDS011;55596;53.554;9.916;2024-01-11T07:25:03;56.90;;;12.83;;
17796;SDS011;55596;53.554;9.916;2024-01-11T07:27:30;37.80;;;13.03;;
17796;SDS011;55596;53.554;9.916;2024-01-11T07:29:57;63.77;;;12.67;;
17796;SDS011;55596;53.554;9.916;2024-01-11T07:32:24;66.03;;;12.63;;
17796;SDS011;55596;53.554;9.916;2024-01-11T07:34:53;56.63;;;12.67;;
17796;SDS011;55596;53.554;9.916;2024-01-11T07:37:20;64.40;;;12.33;;
17796;SDS011;55596;53.554;9.916;2024-01-11T07:39:47;90.43;;;14.17;;
17796;SDS011;55596;53.554;9.916;2024-01-11T07:42:14;31.07;;;12.50;;
17796;SDS011;55596;53.554;9.916;2024-01-11T07:44:42;51.63;;;13.47;;
17796;SDS011;55596;53.554;9.916;2024-01-11T07:47:09;59.93;;;13.27;;
17796;SDS011;55596;53.554;9.916;2024-01-11T07:49:36;46.33;;;12.83;;
17796;SDS011;55596;53.554;9.916;2024-01-11T07:52:05;67.30;;;15.10;;
17796;SDS011;55596;53.554;9.916;2024-01-11T07:54:32;57.40;;;14.70;;
17796;SDS011;55596;53.554;9.916;2024-01-11T07:56:59;58.53;;;13.23;;
17796;SDS011;55596;53.554;9.916;2024-01-11T07:59:28;96.47;;;15.43;;
17796;SDS011;55596;53.554;9.916;2024-01-11T08:01:55;67.80;;;14.07;;
17796;SDS011;55596;53.554;9.916;2024-01-11T08:04:22;47.23;;;13.53;;
17796;SDS011;55596;53.554;9.916;2024-01-11T08:06:49;43.17;;;14.23;;
17796;SDS011;55596;53.554;9.916;2024-01-11T08:09:19;42.87;;;14.10;;
17796;SDS011;55596;53.554;9.916;2024-01-11T08:11:47;50.60;;;14.33;;
17796;SDS011;55596;53.554;9.916;2024-01-11T08:14:14;48.17;;;13.87;;
17796;SDS011;55596;53.554;9.916;2024-01-11T08:16:41;37.80;;;13.33;;
17796;SDS011;55596;53.554;9.916;2024-01-11T08:19:08;33.17;;;13.07;;
17796;SDS011;55596;53.554;9.916;2024-01-11T08:21:36;35.33;;;13.50;;
17796;SDS011;55596;53.554;9.916;2024-01-11T08:24:03;42.33;;;13.43;;
17796;SDS011;55596;53.554;9.916;2024-01-11T08:26:31;54.60;;;14.57;;
17796;SDS011;55596;53.554;9.916;2024-01-11T08:28:58;48.97;;;15.57;;
17796;SDS011;55596;53.554;9.916;2024-01-11T08:31:25;100.87;;;15.63;;
17796;SDS011;55596;53.554;9.916;2024-01-11T08:33:52;84.53;;;15.33;;
17796;SDS011;55596;53.554;9.916;2024-01-11T08:36:19;61.53;;;15.83;;
17796;SDS011;55596;53.554;9.916;2024-01-11T08:38:46;41.63;;;15.63;;
17796;SDS011;55596;53.554;9.916;2024-01-11T08:41:14;41.47;;;15.47;;
17796;SDS011;55596;53.554;9.916;2024-01-11T08:43:43;57.20;;;15.07;;
17796;SDS011;55596;53.554;9.916;2024-01-11T08:46:10;44.07;;;14.77;;
17796;SDS011;55596;53.554;9.916;2024-01-11T08:48:37;59.37;;;15.07;;
17796;SDS011;55596;53.554;9.916;2024-01-11T08:51:04;38.00;;;15.17;;
17796;SDS011;55596;53.554;9.916;2024-01-11T08:53:31;40.30;;;14.53;;
17796;SDS011;55596;53.554;9.916;2024-01-11T08:55:58;39.03;;;12.97;;
17796;SDS011;55596;53.554;9.916;2024-01-11T08:58:25;30.10;;;11.80;;
17796;SDS011;55596;53.554;9.916;2024-01-11T09:00:53;28.93;;;10.60;;
17796;SDS011;55596;53.554;9.916;2024-01-11T09:03:20;29.27;;;10.57;;
17796;SDS011;55596;53.554;9.916;2024-01-11T09:05:48;35.30;;;11.47;;
17796;SDS011;55596;53.554;9.916;2024-01-11T09:08:15;33.27;;;11.33;;
17796;SDS011;55596;53.554;9.916;2024-01-11T09:10:42;28.07;;;11.43;;
17796;SDS011;55596;53.554;9.916;2024-01-11T09:13:09;31.60;;;12.00;;
17796;SDS011;55596;53.554;9.916;2024-01-11T09:15:36;36.07;;;12.87;;
17796;SDS011;55596;53.554;9.916;2024-01-11T09:18:05;39.00;;;13.27;;
17796;SDS011;55596;53.554;9.916;2024-01-11T09:20:32;106.03;;;14.80;;
17796;SDS011;55596;53.554;9.916;2024-01-11T09:22:59;294.77;;;21.90;;
17796;SDS011;55596;53.554;9.916;2024-01-11T09:25:28;185.17;;;17.70;;
17796;SDS011;55596;53.554;9.916;2024-01-11T09:27:55;99.87;;;13.93;;
17796;SDS011;55596;53.554;9.916;2024-01-11T09:30:22;39.60;;;12.50;;
17796;SDS011;55596;53.554;9.916;2024-01-11T09:32:49;62.60;;;13.27;;
17796;SDS011;55596;53.554;9.916;2024-01-11T09:35:18;100.47;;;15.10;;
17796;SDS011;55596;53.554;9.916;2024-01-11T09:37:45;114.40;;;14.97;;
17796;SDS011;55596;53.554;9.916;2024-01-11T09:40:12;110.20;;;13.60;;
17796;SDS011;55596;53.554;9.916;2024-01-11T09:42:39;78.17;;;14.43;;
17796;SDS011;55596;53.554;9.916;2024-01-11T09:45:07;122.63;;;18.77;;
17796;SDS011;55596;53.554;9.916;2024-01-11T09:47:35;69.03;;;19.60;;
17796;SDS011;55596;53.554;9.916;2024-01-11T09:50:03;73.77;;;19.10;;
17796;SDS011;55596;53.554;9.916;2024-01-11T09:52:31;67.37;;;19.17;;
17796;SDS011;55596;53.554;9.916;2024-01-11T09:54:58;52.17;;;18.97;;
17796;SDS011;55596;53.554;9.916;2024-01-11T09:57:26;58.33;;;19.73;;
17796;SDS011;55596;53.554;9.916;2024-01-11T09:59:56;65.87;;;21.57;;
17796;SDS011;55596;53.554;9.916;2024-01-11T10:02:24;52.37;;;20.13;;
17796;SDS011;55596;53.554;9.916;2024-01-11T10:04:51;59.17;;;21.60;;
17796;SDS011;55596;53.554;9.916;2024-01-11T10:07:19;57.23;;;20.67;;
17796;SDS011;55596;53.554;9.916;2024-01-11T10:09:49;63.13;;;23.83;;
17796;SDS011;55596;53.554;9.916;2024-01-11T10:12:17;53.13;;;21.17;;
17796;SDS011;55596;53.554;9.916;2024-01-11T10:14:48;51.23;;;22.00;;
17796;SDS011;55596;53.554;9.916;2024-01-11T10:17:15;55.93;;;23.17;;
17796;SDS011;55596;53.554;9.916;2024-01-11T10:19:42;54.70;;;23.47;;
17796;SDS011;55596;53.554;9.916;2024-01-11T10:22:09;54.60;;;22.97;;
17796;SDS011;55596;53.554;9.916;2024-01-11T10:24:37;58.20;;;23.07;;
17796;SDS011;55596;53.554;9.916;2024-01-11T10:27:07;57.47;;;23.20;;
17796;SDS011;55596;53.554;9.916;2024-01-11T10:29:35;56.13;;;22.70;;
17796;SDS011;55596;53.554;9.916;2024-01-11T10:32:02;58.87;;;24.03;;
17796;SDS011;55596;53.554;9.916;2024-01-11T10:34:30;57.80;;;24.83;;
17796;SDS011;55596;53.554;9.916;2024-01-11T10:36:57;61.03;;;25.27;;
17796;SDS011;55596;53.554;9.916;2024-01-11T10:39:24;56.10;;;24.17;;
17796;SDS011;55596;53.554;9.916;2024-01-11T10:41:54;54.90;;;23.17;;
17796;SDS011;55596;53.554;9.916;2024-01-11T10:44:25;65.13;;;25.00;;
17796;SDS011;55596;53.554;9.916;2024-01-11T10:46:55;50.37;;;22.13;;
17796;SDS011;55596;53.554;9.916;2024-01-11T10:49:23;58.60;;;24.67;;
17796;SDS011;55596;53.554;9.916;2024-01-11T10:51:53;54.03;;;23.90;;
17796;SDS011;55596;53.554;9.916;2024-01-11T10:54:20;53.60;;;23.83;;
17796;SDS011;55596;53.554;9.916;2024-01-11T10:56:48;51.50;;;23.90;;
17796;SDS011;55596;53.554;9.916;2024-01-11T10:59:16;52.47;;;24.73;;
17796;SDS011;55596;53.554;9.916;2024-01-11T11:01:46;57.33;;;25.47;;
17796;SDS011;55596;53.554;9.916;2024-01-11T11:04:13;53.90;;;25.20;;
17796;SDS011;55596;53.554;9.916;2024-01-11T11:06:40;53.47;;;24.67;;
17796;SDS011;55596;53.554;9.916;2024-01-11T11:09:08;56.43;;;25.77;;
17796;SDS011;55596;53.554;9.916;2024-01-11T11:11:37;51.53;;;23.87;;
17796;SDS011;55596;53.554;9.916;2024-01-11T11:14:05;54.43;;;24.40;;
17796;SDS011;55596;53.554;9.916;2024-01-11T11:16:33;50.63;;;23.93;;
17796;SDS011;55596;53.554;9.916;2024-01-11T11:19:01;58.20;;;24.97;;
17796;SDS011;55596;53.554;9.916;2024-01-11T11:21:28;54.90;;;25.50;;
17796;SDS011;55596;53.554;9.916;2024-01-11T11:23:56;55.57;;;26.67;;
17796;SDS011;55596;53.554;9.916;2024-01-11T11:26:23;54.73;;;25.10;;
17796;SDS011;55596;53.554;9.916;2024-01-11T11:28:52;55.10;;;24.83;;
17796;SDS011;55596;53.554;9.916;2024-01-11T11:31:34;49.70;;;25.63;;
17796;SDS011;55596;53.554;9.916;2024-01-11T11:34:02;49.13;;;24.93;;
17796;SDS011;55596;53.554;9.916;2024-01-11T11:36:30;47.07;;;23.43;;
17796;SDS011;55596;53.554;9.916;2024-01-11T11:38:59;52.23;;;24.07;;
17796;SDS011;55596;53.554;9.916;2024-01-11T11:41:26;52.90;;;24.37;;
17796;SDS011;55596;53.554;9.916;2024-01-11T11:43:53;60.97;;;24.73;;
17796;SDS011;55596;53.554;9.916;2024-01-11T11:46:20;48.80;;;24.63;;
17796;SDS011;55596;53.554;9.916;2024-01-11T11:48:48;55.83;;;25.93;;
17796;SDS011;55596;53.554;9.916;2024-01-11T11:51:18;54.97;;;26.50;;
17796;SDS011;55596;53.554;9.916;2024-01-11T11:53:45;50.40;;;25.53;;
17796;SDS011;55596;53.554;9.916;2024-01-11T11:56:13;51.97;;;25.03;;
17796;SDS011;55596;53.554;9.916;2024-01-11T11:58:42;49.33;;;25.17;;
17796;SDS011;55596;53.554;9.916;2024-01-11T12:01:09;48.33;;;24.63;;
17796;SDS011;55596;53.554;9.916;2024-01-11T12:03:38;47.17;;;24.70;;
17796;SDS011;55596;53.554;9.916;2024-01-11T12:06:07;58.70;;;25.40;;
17796;SDS011;55596;53.554;9.916;2024-01-11T12:08:36;50.77;;;25.33;;
17796;SDS011;55596;53.554;9.916;2024-01-11T12:11:05;54.83;;;25.77;;
17796;SDS011;55596;53.554;9.916;2024-01-11T12:13:33;52.87;;;26.00;;
17796;SDS011;55596;53.554;9.916;2024-01-11T12:16:00;52.10;;;23.73;;
17796;SDS011;55596;53.554;9.916;2024-01-11T12:18:27;54.87;;;26.03;;
17796;SDS011;55596;53.554;9.916;2024-01-11T12:20:54;51.13;;;24.17;;
17796;SDS011;55596;53.554;9.916;2024-01-11T12:23:21;56.23;;;26.23;;
17796;SDS011;55596;53.554;9.916;2024-01-11T12:25:49;56.97;;;25.17;;
17796;SDS011;55596;53.554;9.916;2024-01-11T12:28:17;58.70;;;24.80;;
17796;SDS011;55596;53.554;9.916;2024-01-11T12:30:44;48.87;;;24.70;;
17796;SDS011;55596;53.554;9.916;2024-01-11T12:33:11;53.00;;;23.53;;
17796;SDS011;55596;53.554;9.916;2024-01-11T12:35:38;49.50;;;24.50;;
17796;SDS011;55596;53.554;9.916;2024-01-11T12:38:06;49.67;;;23.57;;
17796;SDS011;55596;53.554;9.916;2024-01-11T12:40:34;49.33;;;24.07;;
17796;SDS011;55596;53.554;9.916;2024-01-11T12:43:04;48.83;;;24.73;;
17796;SDS011;55596;53.554;9.916;2024-01-11T12:45:32;46.70;;;23.33;;
17796;SDS011;55596;53.554;9.916;2024-01-11T12:48:00;48.80;;;24.60;;
17796;SDS011;55596;53.554;9.916;2024-01-11T12:50:28;50.93;;;24.17;;
17796;SDS011;55596;53.554;9.916;2024-01-11T12:53:04;44.27;;;24.30;;
17796;SDS011;55596;53.554;9.916;2024-01-11T12:55:31;46.43;;;22.83;;
17796;SDS011;55596;53.554;9.916;2024-01-11T12:58:04;46.23;;;24.03;;
17796;SDS011;55596;53.554;9.916;2024-01-11T13:00:31;46.50;;;23.67;;
17796;SDS011;55596;53.554;9.916;2024-01-11T13:02:58;47.67;;;23.17;;
17796;SDS011;55596;53.554;9.916;2024-01-11T13:05:25;43.87;;;22.30;;
17796;SDS011;55596;53.554;9.916;2024-01-11T13:07:53;41.00;;;21.97;;
17796;SDS011;55596;53.554;9.916;2024-01-11T13:10:20;45.23;;;22.43;;
17796;SDS011;55596;53.554;9.916;2024-01-11T13:12:52;40.93;;;22.30;;
17796;SDS011;55596;53.554;9.916;2024-01-11T13:15:21;42.63;;;21.73;;
17796;SDS011;55596;53.554;9.916;2024-01-11T13:17:49;42.03;;;20.87;;
17796;SDS011;55596;53.554;9.916;2024-01-11T13:20:16;43.10;;;21.63;;
17796;SDS011;55596;53.554;9.916;2024-01-11T13:22:43;41.03;;;22.20;;
17796;SDS011;55596;53.554;9.916;2024-01-11T13:25:10;36.60;;;20.33;;
17796;SDS011;55596;53.554;9.916;2024-01-11T13:27:38;39.23;;;21.17;;
17796;SDS011;55596;53.554;9.916;2024-01-11T13:30:05;42.30;;;20.60;;
17796;SDS011;55596;53.554;9.916;2024-01-11T13:32:34;37.93;;;20.50;;
17796;SDS011;55596;53.554;9.916;2024-01-11T13:35:01;38.20;;;20.63;;
17796;SDS011;55596;53.554;9.916;2024-01-11T13:37:29;41.73;;;21.03;;
17796;SDS011;55596;53.554;9.916;2024-01-11T13:39:56;38.47;;;20.00;;
17796;SDS011;55596;53.554;9.916;2024-01-11T13:42:23;39.63;;;20.63;;
17796;SDS011;55596;53.554;9.916;2024-01-11T13:44:50;37.67;;;20.63;;
17796;SDS011;55596;53.554;9.916;2024-01-11T13:47:17;38.73;;;20.43;;
17796;SDS011;55596;53.554;9.916;2024-01-11T13:49:45;39.33;;;20.37;;
17796;SDS011;55596;53.554;9.916;2024-01-11T13:52:12;37.63;;;18.93;;
17796;SDS011;55596;53.554;9.916;2024-01-11T13:54:39;38.23;;;18.73;;
17796;SDS011;55596;53.554;9.916;2024-01-11T13:57:06;36.87;;;18.63;;
17796;SDS011;55596;53.554;9.916;2024-01-11T13:59:33;30.53;;;18.10;;
17796;SDS011;55596;53.554;9.916;2024-01-11T14:02:00;34.33;;;18.33;;
17796;SDS011;55596;53.554;9.916;2024-01-11T14:04:28;39.97;;;18.20;;
17796;SDS011;55596;53.554;9.916;2024-01-11T14:06:57;32.90;;;17.60;;
17796;SDS011;55596;53.554;9.916;2024-01-11T14:09:24;34.37;;;16.87;;
17796;SDS011;55596;53.554;9.916;2024-01-11T14:11:51;34.43;;;17.00;;
17796;SDS011;55596;53.554;9.916;2024-01-11T14:14:18;36.77;;;16.57;;
17796;SDS011;55596;53.554;9.916;2024-01-11T14:16:45;41.03;;;17.97;;
17796;SDS011;55596;53.554;9.916;2024-01-11T14:19:12;36.23;;;17.20;;
17796;SDS011;55596;53.554;9.916;2024-01-11T14:21:39;29.83;;;15.37;;